This is the latest recevied weather packets stored in our database for station/object DO2TC-13. If no packets are shown the sender has not sent any weather packets the latest 10 day(s).
| Time | Temp. | Humidity | Pressure | Rain* | Wind** | Luminosity | Snow |
|---|---|---|---|---|---|---|---|
| 1777339525 | - | - | 1025 hPa | 0 mm | - | 0 W/m² | - |
| 1777337771 | - | - | 1025 hPa | 0 mm | - | 0 W/m² | - |
| 1777335356 | -0.56° C | 89% | 1024.7 hPa | 0 mm | - | 0 W/m² | - |
| 1777332347 | -0.56° C | 89% | 1024.5 hPa | 0 mm | - | 0 W/m² | - |
| 1777330590 | 0° C | 89% | 1024.3 hPa | 0 mm | - | 0 W/m² | - |
| 1777329358 | 0.56° C | 87% | 1024.2 hPa | 0 mm | - | 0 W/m² | - |
| 1777323361 | 1.67° C | 81% | 1024 hPa | 0 mm | - | 0 W/m² | - |
| 1777322733 | 1.67° C | 80% | 1023.9 hPa | 0 mm | - | 0 W/m² | - |
| 1777322133 | 2.22° C | 80% | 1023.9 hPa | 0 mm | - | 0 W/m² | - |
| 1777319767 | 3.33° C | 76% | 1023.7 hPa | 0 mm | - | 0 W/m² | - |
| 1777318558 | 3.33° C | 75% | 1023.5 hPa | 0 mm | - | 0 W/m² | - |
| 1777317348 | 4.44° C | 71% | 1023.5 hPa | 0 mm | - | 0 W/m² | - |
| 1777315534 | 6.11° C | 65% | 1023.2 hPa | 0 mm | - | 1 W/m² | - |
| 1777303550 | 11.11° C | 45% | 1022.6 hPa | 0 mm | - | 252 W/m² | - |
| 1777299946 | 12.78° C | 43% | 1022.6 hPa | 0 mm | - | 546 W/m² | - |
| 1777295169 | 13.89° C | 46% | 1022.6 hPa | 0 mm | - | 685 W/m² | - |
| 1777293352 | 13.89° C | 52% | 1022.8 hPa | 0 mm | - | 745 W/m² | - |
| 1777289721 | 15° C | 46% | 1022.5 hPa | 0 mm | - | 786 W/m² | - |
| 1777278948 | 13.33° C | 36% | 1022.8 hPa | 0 mm | - | 625 W/m² | - |
| 1777277738 | 12.78° C | 37% | 1022.9 hPa | 0 mm | - | 577 W/m² | - |
| 1777272956 | 10° C | 43% | 1022.9 hPa | 0 mm | - | 360 W/m² | - |
| 1777268173 | 4.44° C | 72% | 1022.9 hPa | 0 mm | - | 140 W/m² | - |
| 1777267592 | 3.89° C | 75% | 1023 hPa | 0 mm | - | 122 W/m² | - |
| 1777265754 | 1.11° C | 79% | 1023 hPa | 0 mm | - | 70 W/m² | - |
| 1777263334 | -1.67° C | 86% | 1022.8 hPa | 0 mm | - | 24 W/m² | - |
* Rain latest hour (hover to see other rain measurements)
** Current wind speed in m/s (hover to see current wind gust speed)